createdAt,value
2023-11-16T00:01:03.187Z,62.31
2023-11-16T00:03:30.805Z,62.06
2023-11-16T00:05:58.526Z,62.60
2023-11-16T00:08:26.250Z,62.46
2023-11-16T00:10:55.653Z,62.27
2023-11-16T00:13:23.276Z,62.53
2023-11-16T00:15:51.343Z,62.71
2023-11-16T00:18:19.363Z,62.66
2023-11-16T00:20:47.218Z,62.70
2023-11-16T00:23:15.124Z,62.59
2023-11-16T00:25:42.707Z,62.44
2023-11-16T00:28:10.287Z,62.95
2023-11-16T00:30:37.989Z,62.95
2023-11-16T00:33:05.911Z,62.87
2023-11-16T00:35:33.671Z,62.66
2023-11-16T00:38:01.260Z,62.98
2023-11-16T00:40:33.466Z,62.91
2023-11-16T00:43:01.194Z,63.11
2023-11-16T00:45:28.870Z,62.80
2023-11-16T00:47:56.627Z,62.97
2023-11-16T00:50:24.282Z,62.99
2023-11-16T00:52:51.894Z,62.98
2023-11-16T00:55:19.491Z,63.33
2023-11-16T00:57:49.065Z,62.94
2023-11-16T01:00:17.528Z,62.96
2023-11-16T01:02:50.346Z,63.33
2023-11-16T01:05:18.981Z,63.21
2023-11-16T01:07:46.722Z,63.18
2023-11-16T01:10:18.925Z,63.32
2023-11-16T01:12:46.604Z,63.37
2023-11-16T01:15:15.515Z,63.35
2023-11-16T01:17:46.436Z,63.22
2023-11-16T01:20:19.904Z,63.66
2023-11-16T01:23:10.898Z,63.46
2023-11-16T01:25:44.513Z,63.29
2023-11-16T01:28:12.401Z,63.73
2023-11-16T01:30:40.118Z,63.56
2023-11-16T01:33:09.485Z,63.82
2023-11-16T01:35:43.705Z,63.36
2023-11-16T01:38:13.297Z,62.99
2023-11-16T01:40:41.860Z,63.59
2023-11-16T01:43:10.835Z,63.42
2023-11-16T01:45:38.869Z,63.38
2023-11-16T01:48:09.122Z,63.26
2023-11-16T01:50:40.472Z,63.62
2023-11-16T01:53:14.462Z,63.83
2023-11-16T01:55:46.091Z,63.52
2023-11-16T01:58:15.731Z,64.09
2023-11-16T02:00:45.141Z,63.62
2023-11-16T02:03:13.010Z,63.89
2023-11-16T02:05:42.083Z,63.85
2023-11-16T02:08:12.634Z,63.93
2023-11-16T02:10:42.336Z,63.75
2023-11-16T02:13:27.605Z,64.19
2023-11-16T02:15:57.119Z,64.23
2023-11-16T02:18:26.701Z,64.20
2023-11-16T02:20:56.430Z,64.01
2023-11-16T02:23:25.562Z,64.05
2023-11-16T02:25:57.722Z,63.89
2023-11-16T02:28:25.776Z,64.24
2023-11-16T02:30:53.772Z,64.17
2023-11-16T02:33:21.577Z,63.80
2023-11-16T02:35:49.847Z,64.07
2023-11-16T02:38:18.547Z,64.12
2023-11-16T02:40:46.383Z,64.16
2023-11-16T02:43:14.437Z,64.39
2023-11-16T02:45:42.851Z,64.06
2023-11-16T02:48:10.655Z,64.28
2023-11-16T02:50:38.382Z,64.44
2023-11-16T02:53:06.161Z,63.97
2023-11-16T02:55:35.779Z,64.14
2023-11-16T02:58:03.387Z,64.24
2023-11-16T03:00:33.160Z,63.72
2023-11-16T03:03:03.776Z,63.54
2023-11-16T03:05:34.122Z,63.46
2023-11-16T03:08:01.856Z,63.50
2023-11-16T03:10:30.216Z,63.41
2023-11-16T03:12:57.970Z,63.01
2023-11-16T03:15:25.672Z,62.95
2023-11-16T03:17:53.382Z,63.07
2023-11-16T03:20:22.099Z,63.30
2023-11-16T03:22:49.675Z,63.01
2023-11-16T03:25:17.328Z,62.89
2023-11-16T03:27:45.278Z,63.05
2023-11-16T03:30:17.401Z,62.48
2023-11-16T03:32:46.869Z,62.53
2023-11-16T03:35:16.558Z,62.95
2023-11-16T03:37:44.773Z,62.46
2023-11-16T03:40:13.661Z,62.88
2023-11-16T03:42:41.311Z,62.76
2023-11-16T03:45:09.516Z,62.42
2023-11-16T03:47:37.175Z,62.30
2023-11-16T03:50:05.502Z,62.50
2023-11-16T03:52:33.127Z,62.46
2023-11-16T03:55:00.762Z,62.25
2023-11-16T03:57:28.432Z,62.25
2023-11-16T03:59:56.068Z,62.66
2023-11-16T04:02:23.689Z,62.83
2023-11-16T04:04:51.263Z,62.88
2023-11-16T04:07:18.937Z,62.67
2023-11-16T04:09:46.789Z,63.18
2023-11-16T04:12:14.413Z,62.95
2023-11-16T04:14:42.234Z,63.43
2023-11-16T04:17:14.607Z,63.38
2023-11-16T04:19:43.095Z,63.51
2023-11-16T04:22:11.620Z,63.67
2023-11-16T04:25:12.545Z,63.27
2023-11-16T04:27:40.950Z,63.32
2023-11-16T04:30:09.132Z,63.51
2023-11-16T04:32:36.765Z,63.82
2023-11-16T04:35:09.349Z,63.92
2023-11-16T04:37:39.889Z,63.51
2023-11-16T04:40:14.900Z,63.50
2023-11-16T04:42:43.902Z,63.84
2023-11-16T04:45:13.521Z,63.35
2023-11-16T04:47:46.091Z,63.23
2023-11-16T04:50:18.468Z,63.07
2023-11-16T04:52:47.042Z,63.34
2023-11-16T04:55:16.427Z,63.20
2023-11-16T04:57:44.514Z,63.24
2023-11-16T05:00:14.933Z,63.20
2023-11-16T05:02:44.209Z,63.51
2023-11-16T05:05:11.924Z,63.44
2023-11-16T05:07:39.503Z,63.45
2023-11-16T05:10:11.247Z,63.36
2023-11-16T05:12:42.680Z,63.36
2023-11-16T05:15:12.162Z,63.48
2023-11-16T05:17:40.411Z,63.61
2023-11-16T05:20:09.175Z,63.63
2023-11-16T05:22:36.879Z,63.62
2023-11-16T05:25:07.176Z,63.79
2023-11-16T05:27:35.542Z,63.72
2023-11-16T05:30:03.566Z,63.34
2023-11-16T05:32:31.175Z,63.38
2023-11-16T05:34:58.741Z,63.15
2023-11-16T05:37:26.333Z,63.64
2023-11-16T05:39:53.910Z,63.60
2023-11-16T05:42:21.494Z,63.48
2023-11-16T05:44:49.545Z,63.91
2023-11-16T05:47:17.153Z,63.50
2023-11-16T05:49:44.716Z,63.77
2023-11-16T05:52:12.655Z,63.82
2023-11-16T05:54:40.311Z,63.50
2023-11-16T05:57:07.902Z,63.92
2023-11-16T05:59:35.506Z,63.72
2023-11-16T06:02:03.115Z,64.00
2023-11-16T06:04:30.758Z,63.62
2023-11-16T06:06:58.352Z,63.78
2023-11-16T06:09:25.953Z,63.84
2023-11-16T06:11:53.806Z,63.50
2023-11-16T06:14:30.663Z,63.89
2023-11-16T06:17:06.064Z,64.01
2023-11-16T06:19:33.676Z,63.68
2023-11-16T06:24:43.702Z,63.69
2023-11-16T06:27:11.762Z,63.29
2023-11-16T06:29:39.317Z,63.36
2023-11-16T06:32:08.886Z,63.71
2023-11-16T06:34:36.459Z,63.34
2023-11-16T06:37:05.898Z,63.29
2023-11-16T06:39:34.218Z,63.58
2023-11-16T06:42:01.975Z,63.31
2023-11-16T06:44:29.667Z,63.43
2023-11-16T06:46:58.342Z,63.17
2023-11-16T06:49:28.852Z,63.52
2023-11-16T06:51:56.526Z,63.78
2023-11-16T06:54:28.088Z,63.52
2023-11-16T06:56:56.826Z,63.37
2023-11-16T06:59:25.842Z,63.14
2023-11-16T07:01:53.678Z,63.08
2023-11-16T07:04:22.285Z,63.37
2023-11-16T07:06:50.352Z,63.28
2023-11-16T07:09:18.849Z,63.12
2023-11-16T07:11:48.740Z,62.92
2023-11-16T07:14:17.908Z,62.94
2023-11-16T07:16:45.573Z,63.43
2023-11-16T07:19:17.661Z,63.11
2023-11-16T07:21:45.330Z,63.33
2023-11-16T07:24:13.090Z,63.11
2023-11-16T07:26:41.316Z,63.19
2023-11-16T07:29:09.630Z,63.32
2023-11-16T07:31:38.805Z,63.50
2023-11-16T07:34:06.411Z,63.40
2023-11-16T07:36:34.178Z,63.06
2023-11-16T07:39:01.801Z,63.18
2023-11-16T07:41:32.230Z,63.12
2023-11-16T07:43:59.846Z,63.04
2023-11-16T07:46:27.743Z,63.19
2023-11-16T07:48:55.421Z,63.21
2023-11-16T07:51:23.206Z,63.21
2023-11-16T07:53:56.286Z,62.87
2023-11-16T07:56:25.099Z,63.01
2023-11-16T07:58:53.805Z,62.65
2023-11-16T08:04:12.533Z,62.88
2023-11-16T08:06:42.066Z,62.52
2023-11-16T08:09:10.809Z,62.71
2023-11-16T08:11:38.406Z,62.59
2023-11-16T08:14:08.001Z,62.88
2023-11-16T08:16:35.794Z,62.58
2023-11-16T08:19:03.470Z,62.62
2023-11-16T08:21:31.396Z,63.03
2023-11-16T08:23:59.192Z,62.74
2023-11-16T08:26:26.941Z,62.70
2023-11-16T08:28:54.534Z,62.81
2023-11-16T08:31:22.165Z,62.85
2023-11-16T08:33:49.898Z,62.72
2023-11-16T08:36:18.576Z,62.51
2023-11-16T08:38:47.855Z,62.42
2023-11-16T08:41:16.622Z,62.94
2023-11-16T08:43:48.731Z,62.60
2023-11-16T08:46:22.592Z,62.56
2023-11-16T08:48:52.562Z,62.65
2023-11-16T08:51:24.493Z,62.29
2023-11-16T08:53:57.579Z,62.67
2023-11-16T08:56:35.451Z,62.48
2023-11-16T08:59:09.605Z,62.34
2023-11-16T09:01:39.215Z,62.12
2023-11-16T09:04:10.589Z,62.10
2023-11-16T09:06:38.521Z,61.85
2023-11-16T09:09:32.298Z,61.88
2023-11-16T09:12:04.507Z,61.84
2023-11-16T09:14:35.446Z,62.17
2023-11-16T09:17:12.656Z,61.96
2023-11-16T09:19:42.133Z,61.91
2023-11-16T09:22:10.997Z,62.17
2023-11-16T09:24:40.363Z,61.92
2023-11-16T09:27:08.176Z,61.91
2023-11-16T09:29:39.943Z,61.78
2023-11-16T09:32:11.513Z,61.93
2023-11-16T09:34:39.314Z,61.83
2023-11-16T09:37:08.211Z,61.53
2023-11-16T09:39:35.959Z,61.55
2023-11-16T09:42:08.871Z,61.54
2023-11-16T09:44:40.605Z,61.88
2023-11-16T09:47:26.867Z,61.78
2023-11-16T09:49:57.516Z,61.63
2023-11-16T09:52:27.959Z,61.65
2023-11-16T09:55:01.918Z,61.30
2023-11-16T09:57:39.180Z,61.20
2023-11-16T10:00:17.034Z,61.49
2023-11-16T10:02:48.047Z,61.42
2023-11-16T10:05:23.532Z,60.90
2023-11-16T10:07:54.451Z,61.35
2023-11-16T10:10:22.259Z,61.00
2023-11-16T10:12:51.129Z,60.91
2023-11-16T10:15:21.703Z,61.03
2023-11-16T10:17:50.043Z,61.20
2023-11-16T10:20:19.076Z,61.07
2023-11-16T10:22:48.111Z,60.93
2023-11-16T10:25:16.594Z,60.68
2023-11-16T10:27:44.926Z,60.68
2023-11-16T10:30:17.363Z,60.88
2023-11-16T10:32:48.388Z,61.12
2023-11-16T10:35:18.909Z,61.07
2023-11-16T10:37:46.727Z,61.30
2023-11-16T10:40:14.426Z,61.20
2023-11-16T10:42:46.540Z,61.48
2023-11-16T10:45:18.166Z,61.17
2023-11-16T10:47:46.952Z,61.12
2023-11-16T10:50:16.921Z,61.03
2023-11-16T10:52:46.412Z,61.00
2023-11-16T10:55:23.320Z,60.94
2023-11-16T10:58:06.972Z,60.96
2023-11-16T11:00:38.998Z,61.21
2023-11-16T11:03:08.501Z,61.03
2023-11-16T11:05:38.763Z,61.13
2023-11-16T11:08:10.114Z,60.84
2023-11-16T11:10:42.480Z,60.88
2023-11-16T11:13:11.747Z,61.19
2023-11-16T11:15:41.280Z,61.38
2023-11-16T11:18:09.937Z,61.50
2023-11-16T11:20:41.486Z,61.54
2023-11-16T11:23:15.101Z,61.54
2023-11-16T11:25:43.528Z,61.95
2023-11-16T11:28:13.598Z,61.87
2023-11-16T11:31:01.579Z,61.49
2023-11-16T11:33:46.494Z,61.77
2023-11-16T11:36:21.803Z,62.08
2023-11-16T11:38:54.659Z,61.77
2023-11-16T11:41:24.245Z,61.71
2023-11-16T11:43:51.906Z,61.53
2023-11-16T11:46:20.096Z,61.43
2023-11-16T11:48:51.903Z,61.20
2023-11-16T11:51:20.812Z,60.88
2023-11-16T11:53:49.775Z,60.67
2023-11-16T11:56:17.939Z,60.02
2023-11-16T11:58:45.537Z,60.03
2023-11-16T12:01:13.394Z,59.89
2023-11-16T12:04:06.068Z,59.78
2023-11-16T12:06:38.062Z,59.28
2023-11-16T12:09:07.501Z,58.82
2023-11-16T12:11:36.090Z,59.38
2023-11-16T12:14:04.611Z,59.05
2023-11-16T12:16:32.379Z,58.53
2023-11-16T12:19:00.063Z,58.46
2023-11-16T12:21:27.866Z,58.17
2023-11-16T12:23:56.628Z,58.41
2023-11-16T12:26:32.738Z,57.90
2023-11-16T12:29:00.343Z,58.14
2023-11-16T12:31:28.532Z,58.29
2023-11-16T12:33:57.312Z,58.58
2023-11-16T12:36:26.924Z,58.42
2023-11-16T12:38:54.613Z,58.44
2023-11-16T12:41:25.648Z,58.82
2023-11-16T12:43:54.275Z,58.97
2023-11-16T12:46:24.667Z,59.23
2023-11-16T12:48:53.160Z,59.33
2023-11-16T12:51:21.906Z,59.44
2023-11-16T12:53:49.762Z,59.74
2023-11-16T12:56:18.511Z,59.92
2023-11-16T12:58:47.063Z,59.98
2023-11-16T13:01:16.642Z,59.99
2023-11-16T13:03:50.229Z,60.18
2023-11-16T13:06:21.137Z,60.17
2023-11-16T13:08:50.211Z,60.21
2023-11-16T13:11:18.350Z,60.01
2023-11-16T13:13:46.249Z,60.57
2023-11-16T13:16:16.035Z,60.65
2023-11-16T13:18:46.058Z,60.47
2023-11-16T13:21:18.848Z,60.73
2023-11-16T13:23:48.442Z,60.82
2023-11-16T13:26:16.122Z,61.45
2023-11-16T13:28:45.953Z,61.26
2023-11-16T13:31:15.753Z,61.49
2023-11-16T13:33:53.552Z,61.37
2023-11-16T13:36:21.453Z,61.62
2023-11-16T13:38:54.827Z,62.00
2023-11-16T13:41:24.105Z,61.94
2023-11-16T13:43:51.782Z,62.09
2023-11-16T13:46:19.567Z,62.27
2023-11-16T13:48:48.056Z,62.46
2023-11-16T13:51:15.626Z,62.22
2023-11-16T13:53:43.301Z,62.60
2023-11-16T13:56:11.893Z,62.24
2023-11-16T13:58:40.837Z,62.43
2023-11-16T14:01:10.193Z,62.87
2023-11-16T14:03:38.131Z,62.82
2023-11-16T14:06:07.024Z,62.24
2023-11-16T14:08:34.845Z,62.74
2023-11-16T14:11:03.584Z,62.39
2023-11-16T14:13:31.172Z,62.12
2023-11-16T14:16:04.913Z,62.64
2023-11-16T14:18:34.651Z,62.48
2023-11-16T14:21:06.859Z,62.56
2023-11-16T14:23:37.189Z,62.72
2023-11-16T14:26:09.668Z,62.56
2023-11-16T14:28:37.340Z,62.68
2023-11-16T14:31:05.607Z,62.79
2023-11-16T14:33:33.317Z,62.80
2023-11-16T14:36:01.018Z,63.29
2023-11-16T14:38:28.617Z,63.24
2023-11-16T14:40:56.224Z,62.91
2023-11-16T14:43:23.794Z,63.21
2023-11-16T14:45:51.733Z,63.46
2023-11-16T14:48:19.639Z,63.39
2023-11-16T14:50:51.119Z,63.46
2023-11-16T14:53:22.337Z,63.68
2023-11-16T14:55:50.944Z,63.21
2023-11-16T14:58:20.795Z,63.83
2023-11-16T15:00:48.438Z,63.99
2023-11-16T15:03:16.201Z,64.12
2023-11-16T15:05:43.855Z,63.82
2023-11-16T15:08:11.408Z,64.37
2023-11-16T15:10:38.991Z,64.33
2023-11-16T15:13:07.802Z,64.49
2023-11-16T15:15:35.856Z,64.07
2023-11-16T15:18:04.850Z,64.02
2023-11-16T15:20:35.959Z,64.53
2023-11-16T15:23:03.596Z,64.17
2023-11-16T15:25:31.234Z,64.25
2023-11-16T15:27:59.177Z,64.58
2023-11-16T15:30:26.937Z,64.39
2023-11-16T15:32:55.018Z,64.33
2023-11-16T15:35:25.993Z,64.30
2023-11-16T15:37:57.826Z,64.66
2023-11-16T15:40:26.517Z,64.39
2023-11-16T15:42:54.344Z,64.35
2023-11-16T15:45:22.042Z,64.30
2023-11-16T15:47:50.269Z,64.78
2023-11-16T15:50:17.880Z,64.66
2023-11-16T15:52:45.711Z,64.82
2023-11-16T15:55:13.536Z,64.37
2023-11-16T15:57:41.509Z,64.67
2023-11-16T16:00:12.242Z,64.43
2023-11-16T16:02:42.992Z,64.60
2023-11-16T16:05:10.686Z,64.86
2023-11-16T16:07:38.412Z,64.95
2023-11-16T16:10:06.938Z,65.01
2023-11-16T16:12:35.741Z,64.43
2023-11-16T16:15:06.432Z,64.61
2023-11-16T16:17:35.224Z,64.63
2023-11-16T16:20:04.684Z,64.88
2023-11-16T16:22:32.268Z,64.84
2023-11-16T16:24:59.902Z,64.89
2023-11-16T16:27:27.542Z,64.90
2023-11-16T16:29:55.150Z,65.28
2023-11-16T16:32:22.960Z,65.17
2023-11-16T16:34:51.310Z,65.48
2023-11-16T16:37:18.902Z,65.05
2023-11-16T16:39:46.555Z,65.62
2023-11-16T16:42:14.170Z,65.61
2023-11-16T16:44:41.763Z,65.28
2023-11-16T16:47:09.521Z,65.47
2023-11-16T16:49:37.179Z,65.68
2023-11-16T16:52:05.122Z,65.79
2023-11-16T16:54:32.952Z,65.73
2023-11-16T16:57:00.599Z,65.55
2023-11-16T16:59:28.255Z,65.98
2023-11-16T17:01:55.925Z,65.62
2023-11-16T17:04:23.658Z,65.91
2023-11-16T17:06:51.288Z,65.83
2023-11-16T17:09:18.934Z,66.06
2023-11-16T17:11:46.976Z,66.08
2023-11-16T17:14:15.375Z,66.21
2023-11-16T17:16:43.636Z,65.70
2023-11-16T17:19:11.830Z,65.95
2023-11-16T17:21:44.844Z,65.79
2023-11-16T17:24:13.372Z,66.13
2023-11-16T17:26:43.934Z,65.93
2023-11-16T17:29:11.579Z,66.11
2023-11-16T17:31:39.373Z,66.25
2023-11-16T17:34:11.256Z,65.96
2023-11-16T17:36:39.144Z,66.23
2023-11-16T17:39:09.620Z,65.87
2023-11-16T17:41:37.503Z,66.20
2023-11-16T17:44:05.386Z,66.02
2023-11-16T17:46:33.089Z,65.99
2023-11-16T17:49:01.640Z,66.36
2023-11-16T17:51:29.433Z,66.30
2023-11-16T17:53:57.933Z,66.46
2023-11-16T17:56:25.586Z,66.48
2023-11-16T17:58:54.174Z,66.26
2023-11-16T18:01:22.432Z,66.56
2023-11-16T18:03:50.159Z,66.49
2023-11-16T18:06:18.663Z,66.43
2023-11-16T18:08:46.428Z,66.80
2023-11-16T18:11:14.118Z,66.40
2023-11-16T18:13:47.020Z,66.47
2023-11-16T18:16:14.779Z,66.20
2023-11-16T18:18:42.689Z,66.21
2023-11-16T18:21:10.398Z,66.25
2023-11-16T18:23:38.063Z,66.59
2023-11-16T18:26:06.805Z,66.49
2023-11-16T18:28:35.237Z,66.37
2023-11-16T18:31:03.232Z,66.29
2023-11-16T18:33:31.798Z,66.46
2023-11-16T18:36:03.097Z,66.16
2023-11-16T18:38:30.943Z,66.31
2023-11-16T18:40:59.972Z,66.77
2023-11-16T18:43:34.337Z,66.25
2023-11-16T18:46:02.069Z,66.47
2023-11-16T18:48:30.724Z,66.30
2023-11-16T18:50:58.358Z,66.63
2023-11-16T18:53:25.933Z,66.65
2023-11-16T18:55:58.979Z,66.30
2023-11-16T18:58:26.614Z,66.21
2023-11-16T19:00:54.235Z,66.54
2023-11-16T19:03:22.540Z,66.67
2023-11-16T19:05:50.180Z,66.54
2023-11-16T19:08:20.377Z,66.61
2023-11-16T19:10:48.100Z,66.58
2023-11-16T19:13:15.808Z,66.58
2023-11-16T19:15:44.619Z,66.50
2023-11-16T19:18:12.872Z,66.11
2023-11-16T19:20:40.911Z,66.56
2023-11-16T19:23:13.069Z,66.27
2023-11-16T19:25:44.379Z,66.43
2023-11-16T19:28:12.139Z,66.38
2023-11-16T19:30:39.832Z,66.17
2023-11-16T19:33:07.919Z,66.08
2023-11-16T19:35:35.920Z,66.28
2023-11-16T19:38:03.552Z,66.46
2023-11-16T19:40:38.958Z,66.63
2023-11-16T19:43:08.640Z,66.70
2023-11-16T19:45:37.974Z,66.77
2023-11-16T19:48:07.444Z,66.57
2023-11-16T19:50:38.617Z,66.89
2023-11-16T19:53:07.868Z,66.91
2023-11-16T19:55:39.386Z,66.56
2023-11-16T19:58:09.106Z,66.61
2023-11-16T20:00:39.253Z,66.71
2023-11-16T20:03:08.167Z,66.83
2023-11-16T20:05:36.277Z,66.44
2023-11-16T20:08:04.064Z,66.32
2023-11-16T20:10:37.785Z,66.60
2023-11-16T20:13:07.547Z,66.46
2023-11-16T20:15:36.037Z,66.62
2023-11-16T20:18:03.750Z,66.58
2023-11-16T20:20:36.167Z,66.69
2023-11-16T20:23:08.094Z,66.97
2023-11-16T20:25:35.824Z,66.79
2023-11-16T20:28:07.181Z,67.08
2023-11-16T20:30:34.841Z,66.85
2023-11-16T20:33:02.485Z,66.96
2023-11-16T20:35:30.149Z,66.98
2023-11-16T20:37:57.732Z,66.64
2023-11-16T20:40:25.433Z,66.50
2023-11-16T20:42:57.658Z,66.83
2023-11-16T20:45:25.615Z,66.61
2023-11-16T20:47:53.248Z,66.76
2023-11-16T20:50:21.855Z,66.76
2023-11-16T20:52:49.486Z,66.76
2023-11-16T20:56:10.265Z,66.64
2023-11-16T20:58:37.865Z,66.88
2023-11-16T21:01:07.683Z,66.93
2023-11-16T21:03:35.980Z,66.87
2023-11-16T21:06:03.846Z,66.61
2023-11-16T21:08:31.451Z,67.05
2023-11-16T21:10:59.085Z,66.63
2023-11-16T21:13:26.669Z,66.63
2023-11-16T21:15:54.405Z,67.10
2023-11-16T21:18:22.166Z,66.83
2023-11-16T21:20:49.736Z,66.83
2023-11-16T21:23:17.350Z,66.32
2023-11-16T21:25:44.979Z,66.31
2023-11-16T21:28:12.728Z,66.63
2023-11-16T21:30:40.362Z,66.39
2023-11-16T21:33:08.970Z,66.64
2023-11-16T21:35:36.616Z,66.54
2023-11-16T21:38:04.333Z,66.51
2023-11-16T21:40:33.130Z,66.74
2023-11-16T21:43:00.922Z,67.07
2023-11-16T21:45:30.181Z,67.08
2023-11-16T21:47:57.817Z,67.00
2023-11-16T21:50:26.032Z,67.19
2023-11-16T21:52:53.682Z,67.36
2023-11-16T21:55:24.428Z,67.49
2023-11-16T21:57:52.068Z,67.33
2023-11-16T22:00:19.707Z,67.65
2023-11-16T22:02:48.018Z,67.50
2023-11-16T22:05:15.893Z,67.79
2023-11-16T22:07:47.117Z,68.00
2023-11-16T22:10:19.525Z,68.05
2023-11-16T22:12:53.630Z,68.13
2023-11-16T22:15:21.710Z,68.35
2023-11-16T22:17:51.361Z,68.26
2023-11-16T22:20:19.615Z,68.23
2023-11-16T22:22:49.799Z,68.52
2023-11-16T22:25:19.130Z,68.44
2023-11-16T22:27:48.649Z,68.85
2023-11-16T22:30:18.452Z,68.96
2023-11-16T22:32:47.147Z,69.14
2023-11-16T22:35:16.608Z,69.19
2023-11-16T22:37:49.102Z,69.26
2023-11-16T22:40:20.013Z,69.08
2023-11-16T22:42:48.373Z,69.08
2023-11-16T22:45:16.080Z,68.99
2023-11-16T22:47:45.274Z,69.08
2023-11-16T22:50:15.610Z,68.88
2023-11-16T22:52:43.957Z,68.83
2023-11-16T22:55:13.849Z,69.17
2023-11-16T22:57:42.680Z,69.06
2023-11-16T23:00:18.584Z,69.24
2023-11-16T23:02:46.494Z,68.65
2023-11-16T23:05:14.712Z,69.06
2023-11-16T23:07:43.048Z,68.86
2023-11-16T23:10:11.746Z,68.98
2023-11-16T23:12:39.729Z,69.32
2023-11-16T23:15:09.644Z,69.73
2023-11-16T23:17:41.558Z,69.70
2023-11-16T23:20:11.890Z,69.82
2023-11-16T23:22:41.066Z,69.83
2023-11-16T23:25:13.609Z,69.86
2023-11-16T23:27:47.392Z,71.07
2023-11-16T23:30:15.076Z,70.71
2023-11-16T23:32:42.711Z,71.49
2023-11-16T23:35:11.088Z,70.83
2023-11-16T23:37:38.716Z,71.02
2023-11-16T23:40:07.658Z,71.21
2023-11-16T23:42:35.351Z,71.80
2023-11-16T23:45:03.302Z,71.79
2023-11-16T23:47:30.989Z,71.79
2023-11-16T23:49:59.075Z,71.39
2023-11-16T23:52:26.735Z,71.02
2023-11-16T23:54:54.609Z,71.61
2023-11-16T23:57:22.591Z,71.59
2023-11-16T23:59:50.282Z,71.73
